aviador You're here:

KAWM Decoded Metar

W MEMPHIS MUNI in AR, USA
Report Time2017-07-24 15:53:00
UTC Time2017-07-24 16:32:51
Flight Rules vfr VFR
Wind250° at 04 kt
W.Decomp.*RWY 17: 0.8 kt HW 3.9 kt RCW
W.Rank250° ranks 33
Current wind is below 250° avg. (5.7)
Visibility9999 m
Phenomena:N/A
Clouds:N/A
Expected CloudBase > 1,600 ft AGL from Temp-Dew spread
CeilingNone
Temp28°C (ISA +13)
Dew Point24°C (79% RH)
Heat Index31.9°C
QNH1014 hPa
Density Alt2,116 ft
Elevation213 ft
Report Wrong Elevation
Raw Report
KAWM 241553Z AUTO 25004KT 10SM CLR 28/24 A2995 RMK AO2 SLP137
T02830244=

Extra information for KAWM:More info

Metar Taf Metar & Taf Last 4 Metars F.Rules Stats Wind Profile Meteogram Temp Stats Airport Information Weather charts Add Link Nearby VenuesMetar ALERT Operation Metar Decoded Social comments

AIRNAV info for KAWM